createdAt,value
2022-10-21T00:02:00.688Z,8.47
2022-10-21T00:04:29.491Z,9.27
2022-10-21T00:06:59.897Z,9.43
2022-10-21T00:09:28.585Z,9.50
2022-10-21T00:11:57.801Z,8.30
2022-10-21T00:14:26.568Z,9.13
2022-10-21T00:16:55.289Z,9.00
2022-10-21T00:19:23.983Z,9.37
2022-10-21T00:21:52.760Z,9.77
2022-10-21T00:24:22.752Z,8.70
2022-10-21T00:26:51.769Z,11.60
2022-10-21T00:31:53.345Z,9.07
2022-10-21T00:34:24.822Z,9.40
2022-10-21T00:36:55.736Z,9.67
2022-10-21T00:39:25.855Z,9.50
2022-10-21T00:41:54.515Z,9.77
2022-10-21T00:44:23.264Z,9.63
2022-10-21T00:46:55.127Z,9.67
2022-10-21T00:49:36.996Z,9.77
2022-10-21T00:52:10.124Z,9.17
2022-10-21T00:54:42.687Z,9.77
2022-10-21T00:57:12.935Z,9.97
2022-10-21T00:59:46.539Z,9.33
2022-10-21T01:02:15.408Z,9.73
2022-10-21T01:04:45.424Z,10.13
2022-10-21T01:07:14.495Z,9.67
2022-10-21T01:09:44.878Z,9.83
2022-10-21T01:12:25.347Z,9.63
2022-10-21T01:14:58.805Z,9.67
2022-10-21T01:17:44.768Z,9.87
2022-10-21T01:20:49.982Z,10.17
2022-10-21T01:23:44.247Z,9.73
2022-10-21T01:26:42.969Z,10.43
2022-10-21T01:29:37.744Z,9.70
2022-10-21T01:32:18.627Z,9.90
2022-10-21T01:34:55.607Z,10.03
2022-10-21T01:37:30.224Z,10.20
2022-10-21T01:40:07.453Z,9.17
2022-10-21T01:42:41.949Z,9.57
2022-10-21T01:45:15.867Z,9.93
2022-10-21T01:47:49.895Z,9.47
2022-10-21T01:50:23.625Z,10.03
2022-10-21T01:52:58.314Z,9.70
2022-10-21T01:55:31.439Z,9.73
2022-10-21T01:58:04.510Z,10.27
2022-10-21T02:00:36.401Z,10.40
2022-10-21T02:03:11.263Z,9.90
2022-10-21T02:05:41.170Z,10.50
2022-10-21T02:08:10.467Z,10.37
2022-10-21T02:10:43.020Z,10.83
2022-10-21T02:13:17.073Z,10.77
2022-10-21T02:15:46.009Z,11.20
2022-10-21T02:18:23.455Z,10.27
2022-10-21T02:20:57.299Z,10.77
2022-10-21T02:23:31.716Z,10.77
2022-10-21T02:26:00.901Z,9.90
2022-10-21T02:28:30.456Z,10.37
2022-10-21T02:31:10.227Z,10.63
2022-10-21T02:33:51.445Z,11.10
2022-10-21T02:36:29.521Z,11.10
2022-10-21T02:39:03.113Z,10.80
2022-10-21T02:41:33.691Z,11.30
2022-10-21T02:44:03.924Z,11.07
2022-10-21T02:46:37.821Z,11.07
2022-10-21T02:49:08.301Z,10.57
2022-10-21T02:51:37.950Z,10.97
2022-10-21T02:54:06.708Z,10.97
2022-10-21T02:56:35.423Z,11.33
2022-10-21T02:59:04.439Z,11.07
2022-10-21T03:01:33.404Z,12.07
2022-10-21T03:04:02.171Z,10.57
2022-10-21T03:06:32.245Z,12.00
2022-10-21T03:09:01.093Z,11.47
2022-10-21T03:11:30.386Z,12.03
2022-10-21T03:13:59.091Z,12.33
2022-10-21T03:16:28.044Z,11.47
2022-10-21T03:18:56.797Z,11.87
2022-10-21T03:21:25.751Z,11.50
2022-10-21T03:23:56.179Z,10.87
2022-10-21T03:26:25.384Z,12.03
2022-10-21T03:28:54.272Z,11.20
2022-10-21T03:31:23.452Z,12.10
2022-10-21T03:33:52.273Z,11.73
2022-10-21T03:36:21.679Z,11.60
2022-10-21T03:38:50.437Z,12.47
2022-10-21T03:41:20.615Z,11.57
2022-10-21T03:43:49.591Z,11.73
2022-10-21T03:46:18.462Z,11.83
2022-10-21T03:48:47.257Z,11.90
2022-10-21T03:51:16.056Z,10.80
2022-10-21T03:53:45.149Z,11.53
2022-10-21T03:56:14.790Z,11.90
2022-10-21T03:58:44.931Z,11.20
2022-10-21T04:01:14.669Z,11.77
2022-10-21T04:03:43.871Z,11.50
2022-10-21T04:06:13.477Z,11.83
2022-10-21T04:08:42.737Z,12.07
2022-10-21T04:11:12.023Z,12.07
2022-10-21T04:13:40.870Z,11.97
2022-10-21T04:16:16.534Z,11.60
2022-10-21T04:18:45.607Z,11.93
2022-10-21T04:21:14.728Z,11.33
2022-10-21T04:23:44.219Z,11.07
2022-10-21T04:26:13.712Z,11.70
2022-10-21T04:28:42.705Z,11.63
2022-10-21T04:31:13.257Z,11.17
2022-10-21T04:33:42.214Z,12.30
2022-10-21T04:36:11.352Z,11.70
2022-10-21T04:38:40.432Z,12.00
2022-10-21T04:41:09.658Z,11.63
2022-10-21T04:43:38.934Z,11.50
2022-10-21T04:46:14.115Z,11.33
2022-10-21T04:48:43.425Z,11.40
2022-10-21T04:51:12.674Z,11.57
2022-10-21T04:53:41.671Z,11.93
2022-10-21T04:56:11.091Z,12.30
2022-10-21T04:58:40.527Z,12.40
2022-10-21T05:01:09.919Z,12.23
2022-10-21T05:03:40.384Z,12.90
2022-10-21T05:06:09.379Z,11.73
2022-10-21T05:08:38.281Z,11.87
2022-10-21T05:11:07.511Z,12.93
2022-10-21T05:13:36.570Z,12.40
2022-10-21T05:16:06.243Z,12.67
2022-10-21T05:18:35.399Z,11.57
2022-10-21T05:21:06.218Z,13.07
2022-10-21T05:23:35.138Z,13.13
2022-10-21T05:26:04.615Z,12.80
2022-10-21T05:28:33.645Z,12.33
2022-10-21T05:31:02.619Z,12.50
2022-10-21T05:33:31.654Z,13.00
2022-10-21T05:36:02.685Z,12.63
2022-10-21T05:38:33.540Z,11.87
2022-10-21T05:41:02.703Z,12.13
2022-10-21T05:43:32.004Z,13.37
2022-10-21T05:46:00.963Z,11.60
2022-10-21T05:48:30.533Z,13.47
2022-10-21T05:50:59.525Z,13.13
2022-10-21T05:53:28.520Z,13.03
2022-10-21T05:56:00.052Z,12.97
2022-10-21T05:58:30.145Z,12.93
2022-10-21T06:00:59.643Z,13.30
2022-10-21T06:03:30.788Z,13.97
2022-10-21T06:06:00.625Z,13.63
2022-10-21T06:08:31.120Z,13.43
2022-10-21T06:11:07.770Z,13.33
2022-10-21T06:13:37.731Z,12.87
2022-10-21T06:16:08.585Z,12.50
2022-10-21T06:18:37.812Z,13.03
2022-10-21T06:21:07.398Z,13.43
2022-10-21T06:23:36.602Z,13.83
2022-10-21T06:26:08.322Z,14.20
2022-10-21T06:28:39.153Z,13.00
2022-10-21T06:31:09.085Z,13.30
2022-10-21T06:33:38.039Z,13.30
2022-10-21T06:36:07.725Z,12.83
2022-10-21T06:38:36.993Z,13.03
2022-10-21T06:41:12.285Z,13.03
2022-10-21T06:43:42.980Z,12.67
2022-10-21T06:46:14.665Z,12.90
2022-10-21T06:48:44.146Z,13.37
2022-10-21T06:51:16.522Z,13.27
2022-10-21T06:53:46.283Z,13.30
2022-10-21T06:56:19.692Z,15.03
2022-10-21T06:58:50.035Z,14.20
2022-10-21T07:01:33.745Z,13.13
2022-10-21T07:04:11.217Z,13.77
2022-10-21T07:06:40.286Z,13.97
2022-10-21T07:09:10.034Z,13.43
2022-10-21T07:11:40.664Z,13.80
2022-10-21T07:14:09.555Z,13.13
2022-10-21T07:16:38.762Z,12.83
2022-10-21T07:19:08.415Z,12.93
2022-10-21T07:21:37.427Z,12.90
2022-10-21T07:24:07.219Z,12.73
2022-10-21T07:26:36.426Z,12.83
2022-10-21T07:29:07.079Z,12.20
2022-10-21T07:31:38.723Z,13.93
2022-10-21T07:34:09.799Z,13.27
2022-10-21T07:36:40.753Z,12.67
2022-10-21T07:39:11.874Z,12.23
2022-10-21T07:41:43.466Z,12.03
2022-10-21T07:44:14.150Z,13.00
2022-10-21T07:46:45.146Z,13.10
2022-10-21T07:49:15.072Z,12.90
2022-10-21T07:51:45.165Z,12.47
2022-10-21T07:54:15.376Z,13.77
2022-10-21T07:56:46.639Z,12.67
2022-10-21T07:59:18.346Z,13.23
2022-10-21T08:04:24.831Z,12.13
2022-10-21T08:06:53.991Z,12.50
2022-10-21T08:09:23.731Z,13.63
2022-10-21T08:11:53.576Z,11.83
2022-10-21T08:14:24.380Z,12.20
2022-10-21T08:16:54.339Z,12.73
2022-10-21T08:19:29.355Z,12.67
2022-10-21T08:21:59.006Z,11.87
2022-10-21T08:24:28.429Z,12.00
2022-10-21T08:26:57.280Z,11.90
2022-10-21T08:29:27.765Z,12.43
2022-10-21T08:31:56.526Z,12.43
2022-10-21T08:34:25.666Z,12.80
2022-10-21T08:36:54.512Z,14.07
2022-10-21T08:39:24.956Z,12.43
2022-10-21T08:42:13.306Z,12.10
2022-10-21T08:44:54.343Z,12.30
2022-10-21T08:47:31.839Z,11.60
2022-10-21T08:50:03.243Z,11.90
2022-10-21T08:52:40.992Z,12.90
2022-10-21T08:55:17.844Z,13.03
2022-10-21T08:57:48.290Z,13.23
2022-10-21T09:00:21.788Z,12.80
2022-10-21T09:03:05.671Z,13.20
2022-10-21T09:05:44.398Z,12.70
2022-10-21T09:08:25.277Z,13.50
2022-10-21T09:11:03.322Z,13.13
2022-10-21T09:14:14.282Z,12.80
2022-10-21T09:16:53.387Z,12.77
2022-10-21T09:19:33.185Z,13.00
2022-10-21T09:22:34.199Z,12.97
2022-10-21T09:25:18.508Z,13.20
2022-10-21T09:27:57.379Z,13.03
2022-10-21T09:30:27.455Z,13.00
2022-10-21T09:33:00.866Z,12.30
2022-10-21T09:35:37.625Z,12.20
2022-10-21T09:38:15.420Z,11.57
2022-10-21T09:40:45.892Z,12.70
2022-10-21T09:43:21.378Z,12.83
2022-10-21T09:45:50.766Z,13.10
2022-10-21T09:48:30.815Z,12.53
2022-10-21T09:51:10.934Z,12.60
2022-10-21T09:53:53.698Z,12.43
2022-10-21T09:56:27.271Z,11.73
2022-10-21T09:59:08.978Z,13.33
2022-10-21T10:01:39.641Z,13.37
2022-10-21T10:04:21.998Z,11.83
2022-10-21T10:06:51.424Z,12.40
2022-10-21T10:09:27.831Z,12.67
2022-10-21T10:12:01.480Z,12.10
2022-10-21T10:14:34.314Z,11.90
2022-10-21T10:17:22.895Z,16.23
2022-10-21T10:20:21.549Z,12.10
2022-10-21T10:23:09.438Z,12.30
2022-10-21T10:25:40.575Z,12.83
2022-10-21T10:28:20.765Z,12.20
2022-10-21T10:30:53.395Z,12.77
2022-10-21T10:33:24.874Z,13.13
2022-10-21T10:35:57.357Z,15.67
2022-10-21T10:38:29.799Z,14.07
2022-10-21T10:41:06.738Z,12.60
2022-10-21T10:43:37.538Z,12.17
2022-10-21T10:46:10.873Z,12.70
2022-10-21T10:48:44.579Z,13.67
2022-10-21T10:51:28.680Z,12.77
2022-10-21T10:54:18.445Z,13.50
2022-10-21T10:56:52.445Z,12.70
2022-10-21T10:59:31.958Z,12.40
2022-10-21T11:02:16.827Z,11.93
2022-10-21T11:05:04.277Z,12.67
2022-10-21T11:07:38.986Z,12.23
2022-10-21T11:10:25.523Z,13.27
2022-10-21T11:12:54.707Z,13.63
2022-10-21T11:15:31.627Z,12.63
2022-10-21T11:18:24.089Z,13.27
2022-10-21T11:21:08.304Z,12.97
2022-10-21T11:24:07.817Z,12.37
2022-10-21T11:26:48.190Z,12.53
2022-10-21T11:29:31.552Z,12.67
2022-10-21T11:32:12.535Z,12.03
2022-10-21T11:34:52.595Z,12.83
2022-10-21T11:37:33.024Z,13.40
2022-10-21T11:40:15.280Z,14.23
2022-10-21T11:42:47.675Z,13.67
2022-10-21T11:45:29.673Z,14.07
2022-10-21T11:48:07.107Z,12.57
2022-10-21T11:50:42.386Z,12.47
2022-10-21T11:53:31.901Z,13.47
2022-10-21T11:56:12.942Z,14.07
2022-10-21T11:58:52.578Z,13.77
2022-10-21T12:01:35.009Z,12.90
2022-10-21T12:04:17.438Z,13.47
2022-10-21T12:06:56.474Z,13.43
2022-10-21T12:09:31.786Z,14.17
2022-10-21T12:12:06.508Z,11.97
2022-10-21T12:14:41.581Z,13.47
2022-10-21T12:17:16.541Z,12.90
2022-10-21T12:19:52.099Z,13.33
2022-10-21T12:22:22.187Z,13.47
2022-10-21T12:24:56.924Z,12.97
2022-10-21T12:27:33.008Z,13.23
2022-10-21T12:30:12.962Z,13.40
2022-10-21T12:32:49.843Z,13.70
2022-10-21T12:35:28.085Z,14.03
2022-10-21T12:38:20.272Z,13.87
2022-10-21T12:40:50.298Z,13.30
2022-10-21T12:43:27.159Z,13.43
2022-10-21T12:46:06.199Z,13.77
2022-10-21T12:48:39.241Z,14.50
2022-10-21T12:51:19.910Z,13.30
2022-10-21T12:56:32.784Z,12.90
2022-10-21T12:59:06.659Z,13.27
2022-10-21T13:01:42.571Z,13.80
2022-10-21T13:04:47.607Z,12.60
2022-10-21T13:08:03.887Z,12.87
2022-10-21T13:10:32.871Z,13.10
2022-10-21T13:13:30.581Z,12.93
2022-10-21T13:16:03.116Z,13.13
2022-10-21T13:19:01.469Z,14.13
2022-10-21T13:21:40.119Z,14.07
2022-10-21T13:24:32.707Z,15.33
2022-10-21T13:27:04.331Z,14.70
2022-10-21T13:29:43.850Z,13.63
2022-10-21T13:32:33.283Z,13.47
2022-10-21T13:35:29.519Z,13.97
2022-10-21T13:38:03.607Z,14.00
2022-10-21T13:40:38.479Z,13.53
2022-10-21T13:43:15.525Z,13.33
2022-10-21T13:45:50.882Z,14.77
2022-10-21T13:48:25.102Z,13.07
2022-10-21T13:50:54.324Z,14.07
2022-10-21T13:53:27.064Z,13.37
2022-10-21T13:55:58.515Z,13.53
2022-10-21T13:58:30.455Z,14.33
2022-10-21T14:01:08.560Z,12.27
2022-10-21T14:03:38.867Z,13.10
2022-10-21T14:06:09.654Z,12.17
2022-10-21T14:08:41.668Z,12.80
2022-10-21T14:11:18.584Z,12.03
2022-10-21T14:13:49.357Z,12.07
2022-10-21T14:16:27.963Z,11.97
2022-10-21T14:18:59.780Z,11.93
2022-10-21T14:21:32.936Z,10.90
2022-10-21T14:24:03.353Z,10.60
2022-10-21T14:26:34.041Z,11.37
2022-10-21T14:29:04.081Z,10.87
2022-10-21T14:31:33.206Z,11.23
2022-10-21T14:34:07.226Z,11.87
2022-10-21T14:36:56.326Z,11.40
2022-10-21T14:39:25.538Z,11.50
2022-10-21T14:41:56.475Z,11.20
2022-10-21T14:44:27.585Z,11.60
2022-10-21T14:46:56.789Z,12.17
2022-10-21T14:49:30.971Z,12.47
2022-10-21T14:52:03.177Z,12.27
2022-10-21T14:54:41.732Z,14.17
2022-10-21T14:57:27.073Z,12.30
2022-10-21T14:59:56.655Z,12.90
2022-10-21T15:02:30.052Z,12.53
2022-10-21T15:05:01.654Z,13.63
2022-10-21T15:07:33.364Z,12.60
2022-10-21T15:10:21.716Z,13.03
2022-10-21T15:12:52.890Z,12.33
2022-10-21T15:15:48.240Z,13.37
2022-10-21T15:18:24.011Z,13.37
2022-10-21T15:20:57.671Z,12.50
2022-10-21T15:23:31.151Z,12.03
2022-10-21T15:26:03.763Z,12.53
2022-10-21T15:28:34.787Z,12.20
2022-10-21T15:31:16.384Z,12.63
2022-10-21T15:33:45.945Z,11.83
2022-10-21T15:36:16.453Z,12.77
2022-10-21T15:38:46.837Z,12.77
2022-10-21T15:41:18.151Z,12.30
2022-10-21T15:43:54.735Z,13.40
2022-10-21T15:46:24.697Z,12.63
2022-10-21T15:48:54.903Z,13.93
2022-10-21T15:51:25.786Z,12.13
2022-10-21T15:53:55.752Z,12.63
2022-10-21T15:56:25.442Z,12.17
2022-10-21T15:58:54.770Z,11.73
2022-10-21T16:01:24.451Z,12.60
2022-10-21T16:03:53.932Z,12.67
2022-10-21T16:06:25.180Z,12.83
2022-10-21T16:08:54.536Z,11.93
2022-10-21T16:11:34.841Z,12.90
2022-10-21T16:14:14.372Z,11.90
2022-10-21T16:16:47.550Z,12.53
2022-10-21T16:19:17.782Z,12.27
2022-10-21T16:21:48.572Z,14.37
2022-10-21T16:24:18.291Z,12.63
2022-10-21T16:26:50.265Z,13.00
2022-10-21T16:29:22.202Z,11.97
2022-10-21T16:31:52.997Z,13.70
2022-10-21T16:34:23.566Z,15.80
2022-10-21T16:36:54.836Z,13.83
2022-10-21T16:39:25.583Z,12.50
2022-10-21T16:41:55.165Z,12.20
2022-10-21T16:44:25.282Z,13.27
2022-10-21T16:46:56.569Z,11.83
2022-10-21T16:49:27.953Z,13.10
2022-10-21T16:52:00.545Z,14.57
2022-10-21T16:54:30.380Z,12.80
2022-10-21T16:57:03.405Z,12.87
2022-10-21T16:59:33.355Z,13.03
2022-10-21T17:02:02.765Z,14.17
2022-10-21T17:04:31.802Z,13.53
2022-10-21T17:07:02.669Z,12.93
2022-10-21T17:09:32.005Z,12.80
2022-10-21T17:12:00.832Z,12.47
2022-10-21T17:14:29.971Z,13.07
2022-10-21T17:16:59.307Z,13.40
2022-10-21T17:19:28.427Z,13.33
2022-10-21T17:21:57.552Z,12.97
2022-10-21T17:24:28.027Z,13.13
2022-10-21T17:26:57.449Z,12.73
2022-10-21T17:29:26.307Z,13.40
2022-10-21T17:31:55.215Z,13.03
2022-10-21T17:34:29.005Z,13.33
2022-10-21T17:36:58.106Z,13.00
2022-10-21T17:39:28.555Z,13.73
2022-10-21T17:41:57.892Z,13.53
2022-10-21T17:44:26.701Z,12.97
2022-10-21T17:46:55.558Z,14.40
2022-10-21T17:49:26.243Z,13.83
2022-10-21T17:51:55.242Z,13.17
2022-10-21T17:54:28.486Z,13.73
2022-10-21T17:57:00.701Z,13.90
2022-10-21T17:59:31.179Z,13.83
2022-10-21T18:02:00.428Z,12.27
2022-10-21T18:04:31.685Z,14.30
2022-10-21T18:07:00.655Z,14.57
2022-10-21T18:09:29.838Z,14.27
2022-10-21T18:12:03.430Z,13.73
2022-10-21T18:14:33.407Z,13.00
2022-10-21T18:17:02.466Z,13.50
2022-10-21T18:19:31.414Z,13.40
2022-10-21T18:22:00.377Z,13.87
2022-10-21T18:24:29.403Z,15.00
2022-10-21T18:26:59.734Z,15.37
2022-10-21T18:29:28.579Z,17.73
2022-10-21T18:31:57.510Z,17.17
2022-10-21T18:34:26.707Z,16.17
2022-10-21T18:36:56.527Z,18.20
2022-10-21T18:39:25.798Z,16.83
2022-10-21T18:41:54.830Z,14.47
2022-10-21T18:44:25.146Z,13.87
2022-10-21T18:46:55.982Z,13.00
2022-10-21T18:49:25.483Z,15.70
2022-10-21T18:51:54.435Z,13.77
2022-10-21T18:54:23.584Z,12.53
2022-10-21T18:56:52.347Z,14.07
2022-10-21T18:59:21.219Z,12.87
2022-10-21T19:01:52.893Z,14.50
2022-10-21T19:04:21.961Z,15.10
2022-10-21T19:06:50.898Z,13.57
2022-10-21T19:09:21.692Z,14.07
2022-10-21T19:11:50.795Z,13.97
2022-10-21T19:14:21.035Z,13.93
2022-10-21T19:16:51.348Z,14.50
2022-10-21T19:19:20.274Z,14.33
2022-10-21T19:21:49.763Z,12.77
2022-10-21T19:24:18.671Z,13.17
2022-10-21T19:26:53.269Z,15.70
2022-10-21T19:29:23.319Z,15.73
2022-10-21T19:31:56.612Z,14.23
2022-10-21T19:34:27.218Z,14.60
2022-10-21T19:36:56.189Z,13.73
2022-10-21T19:39:24.859Z,14.30
2022-10-21T19:41:53.639Z,13.93
2022-10-21T19:44:22.424Z,14.00
2022-10-21T19:46:52.364Z,14.43
2022-10-21T19:49:22.510Z,14.53
2022-10-21T19:51:51.279Z,14.73
2022-10-21T19:54:20.016Z,14.80
2022-10-21T19:56:48.751Z,14.53
2022-10-21T20:01:47.017Z,14.47
2022-10-21T20:04:16.058Z,14.20
2022-10-21T20:06:47.773Z,15.13
2022-10-21T20:09:16.803Z,14.37
2022-10-21T20:11:45.487Z,13.83
2022-10-21T20:14:14.738Z,15.07
2022-10-21T20:16:44.550Z,13.90
2022-10-21T20:19:14.684Z,13.17
2022-10-21T20:21:44.371Z,13.47
2022-10-21T20:24:16.446Z,14.43
2022-10-21T20:26:48.956Z,13.43
2022-10-21T20:29:18.895Z,13.90
2022-10-21T20:31:47.897Z,13.43
2022-10-21T20:34:16.789Z,14.87
2022-10-21T20:36:46.494Z,13.57
2022-10-21T20:39:16.759Z,13.90
2022-10-21T20:41:45.703Z,14.70
2022-10-21T20:44:16.827Z,13.13
2022-10-21T20:46:46.362Z,12.97
2022-10-21T20:49:15.262Z,12.67
2022-10-21T20:51:44.168Z,13.77
2022-10-21T20:54:17.642Z,13.47
2022-10-21T20:56:46.685Z,12.93
2022-10-21T20:59:16.536Z,12.93
2022-10-21T21:01:47.936Z,13.10
2022-10-21T21:04:20.668Z,12.23
2022-10-21T21:06:51.155Z,11.87
2022-10-21T21:10:01.067Z,12.43
2022-10-21T21:12:12.515Z,12.43
2022-10-21T21:14:41.220Z,13.77
2022-10-21T21:17:10.051Z,12.97
2022-10-21T21:19:39.788Z,12.53
2022-10-21T21:22:09.209Z,12.40
2022-10-21T21:24:39.550Z,12.87
2022-10-21T21:27:08.443Z,12.87
2022-10-21T21:29:37.702Z,11.93
2022-10-21T21:32:07.155Z,12.40
2022-10-21T21:34:36.244Z,12.23
2022-10-21T21:37:05.231Z,12.93
2022-10-21T21:39:34.419Z,12.27
2022-10-21T21:42:04.971Z,12.10
2022-10-21T21:44:34.477Z,12.60
2022-10-21T21:47:03.532Z,13.63
2022-10-21T21:49:32.537Z,12.17
2022-10-21T21:52:01.567Z,11.20
2022-10-21T21:54:30.558Z,11.00
2022-10-21T21:57:23.205Z,12.50
2022-10-21T21:59:49.838Z,12.03
2022-10-21T22:02:18.687Z,12.20
2022-10-21T22:04:47.637Z,11.87
2022-10-21T22:07:16.568Z,11.50
2022-10-21T22:09:45.470Z,11.43
2022-10-21T22:12:15.071Z,13.43
2022-10-21T22:14:44.771Z,10.50
2022-10-21T22:17:15.039Z,11.17
2022-10-21T22:19:44.096Z,10.80
2022-10-21T22:22:12.939Z,10.63
2022-10-21T22:24:41.915Z,12.33
2022-10-21T22:27:10.594Z,11.20
2022-10-21T22:29:39.310Z,11.53
2022-10-21T22:32:08.302Z,12.47
2022-10-21T22:34:38.724Z,10.97
2022-10-21T22:37:07.635Z,11.07
2022-10-21T22:39:36.535Z,10.80
2022-10-21T22:42:05.347Z,12.40
2022-10-21T22:44:34.382Z,11.70
2022-10-21T22:47:03.127Z,12.67
2022-10-21T22:49:31.927Z,11.83
2022-10-21T22:52:02.043Z,11.53
2022-10-21T22:54:48.706Z,12.83
2022-10-21T22:57:18.416Z,12.80
2022-10-21T22:59:52.132Z,12.37
2022-10-21T23:02:22.185Z,12.70
2022-10-21T23:04:51.301Z,12.57
2022-10-21T23:07:21.410Z,12.10
2022-10-21T23:09:51.279Z,13.77
2022-10-21T23:12:20.229Z,13.00
2022-10-21T23:14:49.184Z,14.70
2022-10-21T23:17:18.062Z,12.47
2022-10-21T23:19:47.018Z,12.87
2022-10-21T23:22:16.058Z,12.70
2022-10-21T23:24:47.000Z,12.37
2022-10-21T23:27:16.134Z,13.00
2022-10-21T23:29:44.874Z,12.80
2022-10-21T23:32:13.623Z,13.83
2022-10-21T23:34:42.367Z,12.40
2022-10-21T23:37:11.414Z,12.23
2022-10-21T23:39:40.314Z,13.13
2022-10-21T23:42:10.570Z,13.83
2022-10-21T23:44:39.403Z,12.63
2022-10-21T23:47:08.316Z,12.90
2022-10-21T23:49:37.722Z,13.03
2022-10-21T23:52:07.061Z,12.43
2022-10-21T23:54:36.054Z,12.77
2022-10-21T23:57:05.078Z,12.63
2022-10-21T23:59:35.890Z,12.47
